logo dgac
Martes 27 de Febrero del 2024
Buscar por aerodromo o helipuerto
Ingrese nombre de aeródromo, localidad o designador OACI:

Aeródromo: La Florida (PUB) (SCSE)

Ubicación: La Serena , IV Región, Chile (29º 54' 59'' S, 71º 11' 58'' W) Ver ubicación en el mapa

Pistas

Luces
Orientación Dimensión Pendiente Superficie Resistencia APCH THR RWY PAPI
12/30 1938 x 45 0,70 ASPH PCN 46 F/A/X/T
Horas de operación HJ
Elevación 146 m / 481 ft
Otra Información Adm : D.G.A.C.
Uso : PUB
CEL ARO : +56 961730118
Email : aro.serena@dgac.gob.cl
Ubicación: 6 km al E de La Serena

Otra información ver AIP-Chile Volumen I AD 3.9-10.2-L
CCCM/FCCV Descargar CCCM/FCCV
andera de Chile
Mapa de La Florida (PUB) (SCSE)

Último METAR

METAR SCSE 272300Z 27009KT 9999 FEW016 19/15 Q1012

Último TAF

TAF SCSE 272200Z 2800/2824 29010KT 9999 SCT020 TX21/2819Z TN16/2810Z BECMG 2801/2803 30004KT SCT010 BKN020 TEMPO 2809/2812 35004KT 6000 BKN008 OVC012 BECMG 2815/2817 29010KT FEW012 BKN015 BECMG 2819/2821 SCT025

Últimas fotos cámaras

Imagen aerodromo La Florida (PUB) (SCSE) N-Oeste tomada el 27-02-2024 11:23:56 Imagen aerodromo La Florida (PUB) (SCSE) Este tomada el 27-02-2024 11:23:52

Último NOTAM

C0876/24 NOTAMR C0240/24 Q)SCEZ/QMWLX/IV/M/A/000/999/2955S07112W005 A)SCSE B)2402271323 C)2403282100 D)DLY BTN 1100-2100 E)STP RWY 12/30 PROLONGACION THR 12 CRUCE DE VEHICULOS A 50M CTN